Time;durP1;ratioP1;P1;durP2;ratioP2;P2;SDS_P1;SDS_P2;PMS_P1;PMS_P2;Temp;Humidity;BMP_temperature;BMP_pressure;BME280_temperature;BME280_humidity;BME280_pressure;Samples;Min_cycle;Max_cycle;Signal;HPM_P1;HPM_P2
2023/08/11 00:01:49;;;;;;;1.40;1.20;;;24.40;51.60;;;;;;5071148;28;20365;-67
2023/08/11 00:04:18;;;;;;;1.38;1.10;;;24.40;51.60;;;;;;5068415;28;20667;-64
2023/08/11 00:06:44;;;;;;;1.63;1.15;;;24.40;51.60;;;;;;5069840;28;20198;-65
2023/08/11 00:09:11;;;;;;;1.70;1.20;;;24.40;51.70;;;;;;5073128;28;20032;-65
2023/08/11 00:11:37;;;;;;;2.05;1.50;;;24.40;51.70;;;;;;5069790;28;20036;-64
2023/08/11 00:14:03;;;;;;;0.95;0.88;;;24.40;51.70;;;;;;5069132;28;20058;-65
2023/08/11 00:16:29;;;;;;;1.55;1.00;;;24.30;51.60;;;;;;5070644;28;20411;-66
2023/08/11 00:18:55;;;;;;;1.90;1.30;;;24.30;51.70;;;;;;5067926;28;20119;-64
2023/08/11 00:21:21;;;;;;;1.58;1.00;;;24.40;51.80;;;;;;5071543;28;20036;-65
2023/08/11 00:23:46;;;;;;;1.60;0.95;;;24.40;51.80;;;;;;5067455;28;20071;-67
2023/08/11 00:26:14;;;;;;;1.25;1.15;;;24.40;51.80;;;;;;5060852;28;20081;-65
2023/08/11 00:28:40;;;;;;;2.33;1.23;;;24.30;51.80;;;;;;5047736;28;20025;-65
2023/08/11 00:31:08;;;;;;;1.35;1.10;;;24.30;51.80;;;;;;5064441;28;20365;-68
2023/08/11 00:33:33;;;;;;;1.48;1.10;;;24.30;51.80;;;;;;5076935;28;20511;-64
2023/08/11 00:35:59;;;;;;;1.42;0.98;;;24.30;51.80;;;;;;5066472;28;20037;-65
2023/08/11 00:38:38;;;;;;;1.95;1.20;;;24.30;51.80;;;;;;5054264;28;20110;-68
2023/08/11 00:41:05;;;;;;;1.20;1.00;;;24.30;51.80;;;;;;5069228;28;20123;-66
2023/08/11 00:43:31;;;;;;;3.17;1.40;;;24.30;51.80;;;;;;5053858;28;20094;-66
2023/08/11 00:45:59;;;;;;;1.35;1.00;;;24.30;51.90;;;;;;5067454;28;20478;-67
2023/08/11 00:48:25;;;;;;;1.58;1.00;;;24.30;51.90;;;;;;5066494;28;20044;-68
2023/08/11 00:50:57;;;;;;;1.35;0.88;;;24.30;51.90;;;;;;5045944;28;20337;-65
2023/08/11 00:53:24;;;;;;;1.20;1.10;;;24.30;51.90;;;;;;5054477;28;20032;-66
2023/08/11 00:55:51;;;;;;;1.40;1.10;;;24.30;51.90;;;;;;5049303;28;20024;-66
2023/08/11 00:58:17;;;;;;;1.25;1.00;;;24.30;51.90;;;;;;5051749;28;20033;-67
2023/08/11 01:00:45;;;;;;;1.45;1.05;;;24.30;52.60;;;;;;5066309;28;20515;-65
2023/08/11 01:03:11;;;;;;;1.33;1.08;;;24.20;51.90;;;;;;5066039;28;20020;-66
2023/08/11 01:05:44;;;;;;;1.23;0.95;;;24.20;51.90;;;;;;5050481;28;20029;-65
2023/08/11 01:08:28;;;;;;;1.20;1.08;;;24.30;52.00;;;;;;5047723;28;20055;-67
2023/08/11 01:11:21;;;;;;;1.25;1.10;;;24.30;52.00;;;;;;5052988;28;20024;-65
2023/08/11 01:13:57;;;;;;;1.55;1.20;;;24.30;52.00;;;;;;5051636;28;20040;-65
2023/08/11 01:16:24;;;;;;;1.30;1.08;;;24.20;52.00;;;;;;5067299;28;20020;-67
2023/08/11 01:18:50;;;;;;;1.10;1.00;;;24.20;52.00;;;;;;5052929;28;20020;-66
2023/08/11 01:21:17;;;;;;;1.33;1.00;;;24.20;52.00;;;;;;5065534;28;20131;-65
2023/08/11 01:23:43;;;;;;;1.40;0.90;;;24.20;52.00;;;;;;5064459;28;20115;-67
2023/08/11 01:26:11;;;;;;;1.35;1.23;;;24.20;52.00;;;;;;5064575;28;20479;-66
2023/08/11 01:28:37;;;;;;;1.88;1.10;;;24.20;52.00;;;;;;5027741;28;20140;-66
2023/08/11 01:31:06;;;;;;;1.35;1.00;;;24.20;52.00;;;;;;5065905;28;20082;-68
2023/08/11 01:33:31;;;;;;;2.90;1.58;;;24.20;52.00;;;;;;5062068;28;20067;-66
2023/08/11 01:35:57;;;;;;;3.97;1.58;;;24.20;52.10;;;;;;5065712;28;20479;-66
2023/08/11 01:38:23;;;;;;;3.13;1.55;;;24.20;52.10;;;;;;5064261;28;20183;-66
2023/08/11 01:40:50;;;;;;;2.40;1.60;;;24.20;52.10;;;;;;5068885;28;20384;-68
2023/08/11 01:43:18;;;;;;;2.72;1.60;;;24.20;52.10;;;;;;5074026;28;20024;-68
2023/08/11 01:45:44;;;;;;;2.28;1.67;;;24.20;52.20;;;;;;5050618;28;20032;-65
2023/08/11 01:48:12;;;;;;;2.35;1.70;;;24.20;52.20;;;;;;5051610;28;20032;-66
2023/08/11 01:50:38;;;;;;;2.58;1.45;;;24.20;52.20;;;;;;5066605;28;20121;-67
2023/08/11 01:53:04;;;;;;;2.20;1.40;;;24.20;52.20;;;;;;5063736;28;20119;-66
2023/08/11 01:55:31;;;;;;;1.95;1.52;;;24.10;52.10;;;;;;5062928;28;20466;-68
2023/08/11 01:57:58;;;;;;;1.67;1.20;;;24.10;52.10;;;;;;5064363;28;20051;-68
2023/08/11 02:00:25;;;;;;;1.33;1.15;;;24.20;52.20;;;;;;5069454;28;20028;-66
2023/08/11 02:02:52;;;;;;;1.70;1.40;;;24.20;52.20;;;;;;5066147;28;20037;-68
2023/08/11 02:05:18;;;;;;;1.58;1.13;;;24.20;52.30;;;;;;5057322;28;20028;-66
2023/08/11 02:07:47;;;;;;;1.50;1.10;;;24.20;52.30;;;;;;5066033;28;20043;-65
2023/08/11 02:10:13;;;;;;;1.33;1.10;;;24.10;52.20;;;;;;5070109;28;20311;-66
2023/08/11 02:12:40;;;;;;;1.85;1.20;;;24.10;52.30;;;;;;5076857;28;20052;-67
2023/08/11 02:15:07;;;;;;;2.10;1.20;;;24.10;52.30;;;;;;5048871;28;20040;-67
2023/08/11 02:17:34;;;;;;;1.45;1.15;;;24.10;52.30;;;;;;5054175;28;20032;-65
2023/08/11 02:20:08;;;;;;;2.35;1.23;;;24.10;52.30;;;;;;5063520;28;20024;-65
2023/08/11 02:22:33;;;;;;;1.55;0.90;;;24.10;52.40;;;;;;5065777;28;20343;-67
2023/08/11 02:24:59;;;;;;;1.17;1.05;;;24.10;52.30;;;;;;5045956;28;20031;-65
2023/08/11 02:27:26;;;;;;;2.13;1.38;;;24.10;52.30;;;;;;5053614;28;20585;-67
2023/08/11 02:29:52;;;;;;;2.00;1.10;;;24.10;52.30;;;;;;5068136;28;20347;-68
2023/08/11 02:32:19;;;;;;;1.73;1.30;;;24.10;52.30;;;;;;5069041;28;20033;-66
2023/08/11 02:34:47;;;;;;;1.48;1.20;;;24.10;52.40;;;;;;5067503;28;20123;-66
2023/08/11 02:37:13;;;;;;;2.28;1.17;;;24.10;52.40;;;;;;5071610;28;20043;-67
2023/08/11 02:39:38;;;;;;;1.25;1.10;;;24.10;52.40;;;;;;5061923;28;20322;-65
2023/08/11 02:42:04;;;;;;;1.63;1.10;;;24.10;52.40;;;;;;5051704;28;20037;-67
2023/08/11 02:44:30;;;;;;;1.40;1.10;;;24.10;52.40;;;;;;5040092;28;20037;-66
2023/08/11 02:46:56;;;;;;;1.40;1.20;;;24.10;52.40;;;;;;5047251;28;20037;-68
2023/08/11 02:49:22;;;;;;;1.30;1.13;;;24.10;52.40;;;;;;5028511;28;20104;-67
2023/08/11 02:51:48;;;;;;;1.13;1.00;;;24.00;52.30;;;;;;5033605;28;20034;-67
2023/08/11 02:54:14;;;;;;;1.75;1.38;;;24.10;52.40;;;;;;5034635;28;20044;-67
2023/08/11 02:56:46;;;;;;;2.33;1.27;;;24.10;52.40;;;;;;5031043;28;20376;-67
2023/08/11 02:59:12;;;;;;;1.88;1.30;;;24.00;52.30;;;;;;5033095;28;20037;-66
2023/08/11 03:01:38;;;;;;;1.40;1.10;;;24.10;52.40;;;;;;5035928;28;20025;-67
2023/08/11 03:04:04;;;;;;;1.80;1.33;;;24.00;52.30;;;;;;5034468;28;20433;-66
2023/08/11 03:06:30;;;;;;;1.55;1.00;;;24.00;52.40;;;;;;5026245;28;20029;-68
2023/08/11 03:08:56;;;;;;;1.40;1.05;;;24.00;52.40;;;;;;5031506;28;20029;-68
2023/08/11 03:11:22;;;;;;;1.38;1.27;;;24.00;52.30;;;;;;5027686;28;20021;-68
2023/08/11 03:13:51;;;;;;;1.65;1.20;;;24.00;52.40;;;;;;5030249;28;20041;-68
2023/08/11 03:16:17;;;;;;;1.55;1.20;;;24.00;52.40;;;;;;5032417;28;20451;-68
2023/08/11 03:18:43;;;;;;;1.65;1.30;;;24.00;52.40;;;;;;5051590;28;20029;-67
2023/08/11 03:21:09;;;;;;;1.60;1.08;;;24.00;52.40;;;;;;5042904;28;20034;-64
2023/08/11 03:23:36;;;;;;;3.40;1.50;;;24.00;52.40;;;;;;5026260;28;20026;-65
2023/08/11 03:26:02;;;;;;;1.88;1.10;;;24.00;52.40;;;;;;5010978;28;20305;-65
2023/08/11 03:28:31;;;;;;;1.88;1.23;;;24.00;52.40;;;;;;5027793;28;20040;-68
2023/08/11 03:30:59;;;;;;;1.65;1.20;;;24.00;52.40;;;;;;5047463;28;20025;-67
2023/08/11 03:33:26;;;;;;;1.60;1.30;;;24.00;52.40;;;;;;5049510;28;20066;-67
2023/08/11 03:36:02;;;;;;;1.55;1.08;;;24.00;52.40;;;;;;5023372;28;20321;-67
2023/08/11 03:38:29;;;;;;;1.60;0.95;;;24.00;52.40;;;;;;5027971;28;20132;-67
2023/08/11 03:40:55;;;;;;;1.73;1.15;;;24.00;52.40;;;;;;5032409;28;20081;-67
2023/08/11 03:43:21;;;;;;;1.95;1.25;;;24.00;52.40;;;;;;5033072;28;20095;-66
2023/08/11 03:45:50;;;;;;;1.77;1.10;;;24.00;52.40;;;;;;5028769;28;20128;-67
2023/08/11 03:48:16;;;;;;;2.40;1.38;;;24.00;52.40;;;;;;5054620;28;20024;-65
2023/08/11 03:50:42;;;;;;;2.15;1.48;;;24.00;52.40;;;;;;5049007;28;20029;-65
2023/08/11 03:53:08;;;;;;;1.85;1.23;;;24.00;52.40;;;;;;5074459;28;20147;-68
2023/08/11 03:55:35;;;;;;;1.80;1.40;;;23.90;52.40;;;;;;5042885;28;20062;-66
2023/08/11 03:58:02;;;;;;;2.17;1.30;;;23.90;52.40;;;;;;5043197;28;20032;-65
2023/08/11 04:00:29;;;;;;;1.98;1.20;;;23.90;52.40;;;;;;5046942;28;20043;-67
2023/08/11 04:03:09;;;;;;;1.67;1.25;;;23.90;52.40;;;;;;5047152;28;20041;-67
2023/08/11 04:05:36;;;;;;;2.00;1.30;;;23.90;52.50;;;;;;5075452;28;20051;-65
2023/08/11 04:08:04;;;;;;;1.50;1.40;;;23.90;52.50;;;;;;5060447;28;20103;-66
2023/08/11 04:10:31;;;;;;;1.80;1.10;;;23.90;52.50;;;;;;5074873;28;20056;-67
2023/08/11 04:12:57;;;;;;;1.65;1.23;;;23.90;53.10;;;;;;5059828;28;20033;-66
2023/08/11 04:15:24;;;;;;;2.10;1.20;;;23.90;52.50;;;;;;5062255;28;20161;-65
2023/08/11 04:17:50;;;;;;;2.58;1.50;;;23.90;52.50;;;;;;5074217;28;20025;-66
2023/08/11 04:20:16;;;;;;;1.35;1.20;;;23.90;52.50;;;;;;5041423;28;20400;-66
2023/08/11 04:22:43;;;;;;;1.50;1.10;;;23.90;52.50;;;;;;5063772;28;20067;-65
2023/08/11 04:25:12;;;;;;;2.25;1.38;;;23.90;52.50;;;;;;5072057;28;20127;-66
2023/08/11 04:27:43;;;;;;;1.95;1.48;;;23.90;52.50;;;;;;5049581;28;20048;-66
2023/08/11 04:30:10;;;;;;;1.40;1.20;;;23.90;52.50;;;;;;5041413;28;20312;-66
2023/08/11 04:32:38;;;;;;;2.35;1.40;;;23.90;52.50;;;;;;5047843;28;21623;-65
2023/08/11 04:35:08;;;;;;;1.90;1.35;;;23.90;52.50;;;;;;5059795;28;20101;-65
2023/08/11 04:37:35;;;;;;;1.60;1.20;;;23.90;52.50;;;;;;5074473;28;20024;-66
2023/08/11 04:40:06;;;;;;;1.63;1.30;;;23.90;52.50;;;;;;5040647;28;20040;-66
2023/08/11 04:42:32;;;;;;;1.67;1.33;;;23.90;52.60;;;;;;5047518;28;20024;-65
2023/08/11 04:44:59;;;;;;;2.00;1.30;;;23.90;52.50;;;;;;5037552;28;20021;-66
2023/08/11 04:47:25;;;;;;;2.17;1.42;;;23.90;52.60;;;;;;5021376;28;20465;-68
2023/08/11 04:49:51;;;;;;;1.80;1.10;;;23.90;52.60;;;;;;5022295;28;20041;-67
2023/08/11 04:52:18;;;;;;;1.70;1.15;;;23.80;52.50;;;;;;5050887;28;20101;-67
2023/08/11 04:54:43;;;;;;;2.20;1.20;;;23.90;52.60;;;;;;5013690;28;20052;-67
2023/08/11 04:57:09;;;;;;;1.60;1.15;;;23.90;52.60;;;;;;5023714;28;20870;-68
2023/08/11 04:59:35;;;;;;;2.90;1.42;;;23.90;52.60;;;;;;5025408;28;20025;-65
2023/08/11 05:02:02;;;;;;;1.65;1.27;;;23.90;52.60;;;;;;5021485;28;20524;-67
2023/08/11 05:04:27;;;;;;;1.50;1.20;;;23.90;52.70;;;;;;5025746;28;20097;-66
2023/08/11 05:06:53;;;;;;;1.98;1.33;;;23.90;52.60;;;;;;5021993;28;20070;-67
2023/08/11 05:09:19;;;;;;;2.28;1.20;;;23.90;52.70;;;;;;5023815;28;20098;-65
2023/08/11 05:11:45;;;;;;;1.10;1.00;;;23.90;52.70;;;;;;5021969;28;20025;-65
2023/08/11 05:14:14;;;;;;;1.30;1.17;;;23.90;52.70;;;;;;5025173;28;20235;-64
2023/08/11 05:16:40;;;;;;;2.65;1.55;;;23.90;52.70;;;;;;5029301;28;20037;-65
2023/08/11 05:19:05;;;;;;;1.85;1.40;;;23.90;52.70;;;;;;5024336;28;20060;-65
2023/08/11 05:21:32;;;;;;;2.15;1.20;;;23.90;52.70;;;;;;5022308;28;20434;-68
2023/08/11 05:23:58;;;;;;;1.58;1.20;;;23.90;52.70;;;;;;5023387;28;20121;-64
2023/08/11 05:26:24;;;;;;;1.67;1.33;;;23.90;52.70;;;;;;5020865;28;20128;-65
2023/08/11 05:28:50;;;;;;;2.15;1.30;;;23.90;52.70;;;;;;5011911;28;20089;-65
2023/08/11 05:31:17;;;;;;;1.67;1.25;;;23.90;52.70;;;;;;5020475;28;20032;-65
2023/08/11 05:33:42;;;;;;;1.67;1.20;;;23.90;52.80;;;;;;5025260;28;20120;-67
2023/08/11 05:36:08;;;;;;;2.05;1.42;;;23.90;52.80;;;;;;5020809;28;20119;-67
2023/08/11 05:38:35;;;;;;;2.85;1.63;;;23.90;52.80;;;;;;5019026;28;20439;-65
2023/08/11 05:41:01;;;;;;;2.20;1.20;;;23.90;52.80;;;;;;5023853;28;20033;-67
2023/08/11 05:43:26;;;;;;;1.70;1.30;;;23.90;52.80;;;;;;5032154;28;20040;-67
2023/08/11 05:45:52;;;;;;;1.80;1.35;;;23.90;52.90;;;;;;5028855;28;20087;-68
2023/08/11 05:48:18;;;;;;;1.40;1.20;;;23.90;52.90;;;;;;5063454;28;20088;-66
2023/08/11 05:50:50;;;;;;;1.83;1.33;;;23.90;52.90;;;;;;5063150;28;20149;-65
2023/08/11 05:53:16;;;;;;;1.67;1.40;;;23.90;52.90;;;;;;5061887;28;20040;-66
2023/08/11 05:55:41;;;;;;;2.53;1.30;;;24.00;53.00;;;;;;5061030;28;20108;-68
2023/08/11 05:58:07;;;;;;;1.60;1.48;;;23.90;52.90;;;;;;5065166;28;20031;-65
2023/08/11 06:00:33;;;;;;;1.77;1.38;;;23.90;53.00;;;;;;5062211;28;20051;-67
2023/08/11 06:02:59;;;;;;;2.42;1.45;;;24.00;53.00;;;;;;5064875;28;20039;-67
2023/08/11 06:05:26;;;;;;;2.45;1.60;;;24.00;53.10;;;;;;5062288;28;20035;-67
2023/08/11 06:07:52;;;;;;;2.88;1.42;;;24.00;53.10;;;;;;5069150;28;20033;-64
2023/08/11 06:10:18;;;;;;;2.08;1.48;;;24.00;53.10;;;;;;5036889;28;20428;-67
2023/08/11 06:12:43;;;;;;;2.80;1.60;;;24.00;53.10;;;;;;5045456;28;20178;-67
2023/08/11 06:15:09;;;;;;;2.13;1.45;;;24.00;53.10;;;;;;5061036;28;20020;-65
2023/08/11 06:17:36;;;;;;;1.35;1.00;;;24.00;53.20;;;;;;5062954;28;20036;-65
2023/08/11 06:20:04;;;;;;;1.92;1.40;;;24.00;53.20;;;;;;5064481;28;20055;-67
2023/08/11 06:22:31;;;;;;;3.58;1.83;;;24.00;53.20;;;;;;5037913;28;20200;-65
2023/08/11 06:24:57;;;;;;;1.95;1.40;;;24.00;53.30;;;;;;5042657;28;20025;-66
2023/08/11 06:27:22;;;;;;;2.20;1.63;;;24.00;53.30;;;;;;5069817;28;20016;-66
2023/08/11 06:29:48;;;;;;;2.20;1.75;;;24.00;53.30;;;;;;5073115;28;20119;-67
2023/08/11 06:32:14;;;;;;;2.40;1.50;;;24.00;53.40;;;;;;5065859;28;20035;-66
2023/08/11 06:34:40;;;;;;;2.78;1.60;;;24.00;53.40;;;;;;5067677;28;20123;-67
2023/08/11 06:37:06;;;;;;;1.95;1.60;;;24.00;53.40;;;;;;5046243;28;20036;-65
2023/08/11 06:39:32;;;;;;;2.28;1.60;;;24.00;53.40;;;;;;5067411;28;20032;-66
2023/08/11 06:41:58;;;;;;;3.40;1.65;;;24.00;53.40;;;;;;5064842;28;20603;-66
2023/08/11 06:44:44;;;;;;;2.60;1.70;;;24.00;53.40;;;;;;5066679;28;20045;-67
2023/08/11 06:47:10;;;;;;;1.98;1.50;;;24.10;53.50;;;;;;5044814;28;20191;-62
2023/08/11 06:49:36;;;;;;;3.22;1.75;;;24.10;53.50;;;;;;5065096;28;20123;-67
2023/08/11 06:52:02;;;;;;;2.50;1.73;;;24.10;53.50;;;;;;5060838;28;20178;-65
2023/08/11 06:54:28;;;;;;;2.63;1.65;;;24.10;53.50;;;;;;5071042;28;20416;-65
2023/08/11 06:56:53;;;;;;;2.67;2.00;;;24.10;53.50;;;;;;5052282;28;20025;-68
2023/08/11 06:59:19;;;;;;;3.03;1.80;;;24.10;53.50;;;;;;5069677;28;20147;-65
2023/08/11 07:01:45;;;;;;;4.03;1.52;;;24.10;53.50;;;;;;5063286;28;20036;-66
2023/08/11 07:04:11;;;;;;;4.93;2.17;;;24.10;53.50;;;;;;5072064;28;20040;-66
2023/08/11 07:06:37;;;;;;;3.13;1.88;;;24.10;53.40;;;;;;5044630;28;20029;-67
2023/08/11 07:09:03;;;;;;;2.88;1.67;;;24.10;53.40;;;;;;5064803;28;20039;-65
2023/08/11 07:11:29;;;;;;;3.15;2.00;;;24.10;53.40;;;;;;5056787;28;20441;-68
2023/08/11 07:13:55;;;;;;;3.63;2.10;;;24.10;53.40;;;;;;5074730;28;20123;-66
2023/08/11 07:16:21;;;;;;;3.03;1.92;;;24.10;53.40;;;;;;5065854;28;20450;-67
2023/08/11 07:18:47;;;;;;;2.42;1.67;;;24.10;53.40;;;;;;5083756;28;20107;-65
2023/08/11 07:21:13;;;;;;;2.95;2.08;;;24.20;53.40;;;;;;5075163;28;20352;-67
2023/08/11 07:23:39;;;;;;;2.97;2.03;;;24.20;53.30;;;;;;5075084;28;20039;-68
2023/08/11 07:26:05;;;;;;;3.55;2.05;;;24.20;53.30;;;;;;5067593;28;20120;-69
2023/08/11 07:28:31;;;;;;;3.38;1.77;;;24.20;53.30;;;;;;5068121;28;20417;-68
2023/08/11 07:30:58;;;;;;;2.92;2.20;;;24.20;53.30;;;;;;5046375;28;20040;-67
2023/08/11 07:33:24;;;;;;;4.15;2.13;;;24.20;53.20;;;;;;5066993;28;20392;-65
2023/08/11 07:35:50;;;;;;;4.15;2.20;;;24.20;53.20;;;;;;5042244;28;20063;-65
2023/08/11 07:38:18;;;;;;;3.38;1.92;;;24.20;53.10;;;;;;5045084;28;20410;-68
2023/08/11 07:40:44;;;;;;;5.38;2.42;;;24.20;53.10;;;;;;5067240;28;20051;-65
2023/08/11 07:43:10;;;;;;;4.20;2.40;;;24.20;53.10;;;;;;5064005;28;20396;-67
2023/08/11 07:45:36;;;;;;;4.05;2.28;;;24.20;53.00;;;;;;5065686;28;20075;-64
2023/08/11 07:48:03;;;;;;;3.95;2.30;;;24.20;53.00;;;;;;5067501;28;20033;-68
2023/08/11 07:50:30;;;;;;;3.60;2.13;;;24.20;53.00;;;;;;5072148;28;20089;-66
2023/08/11 07:52:56;;;;;;;3.70;2.17;;;24.20;53.00;;;;;;5064715;28;20048;-66
2023/08/11 07:55:24;;;;;;;2.90;2.30;;;24.20;52.90;;;;;;5064024;28;20029;-68
2023/08/11 07:57:52;;;;;;;3.42;2.13;;;24.30;53.00;;;;;;5067386;28;20025;-65
2023/08/11 08:00:24;;;;;;;5.72;2.35;;;24.20;52.90;;;;;;5063991;28;20071;-65
2023/08/11 08:02:52;;;;;;;4.22;2.28;;;24.30;53.10;;;;;;5056038;28;20032;-64
2023/08/11 08:05:19;;;;;;;3.15;2.20;;;24.20;53.00;;;;;;5054095;28;20031;-67
2023/08/11 08:07:45;;;;;;;4.95;2.78;;;24.30;53.10;;;;;;5054559;28;20103;-67
2023/08/11 08:10:14;;;;;;;3.03;1.98;;;24.30;53.10;;;;;;5072918;28;20044;-66
2023/08/11 08:12:43;;;;;;;3.33;2.30;;;24.30;53.10;;;;;;5054311;28;20395;-66
2023/08/11 08:15:10;;;;;;;2.92;2.15;;;24.30;53.10;;;;;;5054661;28;20447;-66
2023/08/11 08:17:38;;;;;;;3.50;2.65;;;24.30;53.10;;;;;;5056378;28;20479;-66
2023/08/11 08:20:09;;;;;;;4.15;2.20;;;24.30;53.20;;;;;;5073485;28;20408;-69
2023/08/11 08:22:36;;;;;;;3.20;2.20;;;24.30;53.20;;;;;;5070374;28;20029;-65
2023/08/11 08:25:08;;;;;;;3.67;2.33;;;24.30;53.30;;;;;;5075041;28;20393;-65
2023/08/11 08:27:40;;;;;;;3.67;2.25;;;24.30;53.30;;;;;;5085882;28;20023;-66
2023/08/11 08:30:09;;;;;;;3.47;2.30;;;24.30;53.40;;;;;;5075237;28;20119;-67
2023/08/11 08:32:37;;;;;;;4.25;2.20;;;24.40;53.50;;;;;;5075738;28;20355;-66
2023/08/11 08:35:04;;;;;;;4.05;2.53;;;24.30;53.50;;;;;;5093970;28;20056;-65
2023/08/11 08:37:31;;;;;;;3.17;2.28;;;24.40;53.60;;;;;;5093658;28;20028;-68
2023/08/11 08:39:57;;;;;;;4.30;2.50;;;24.40;53.60;;;;;;5094047;28;20028;-68
2023/08/11 08:42:25;;;;;;;2.70;2.20;;;24.40;53.70;;;;;;5089322;28;20020;-67
2023/08/11 08:44:53;;;;;;;3.38;2.20;;;24.30;53.70;;;;;;5092268;28;20047;-66
2023/08/11 08:47:24;;;;;;;3.25;2.20;;;24.40;53.80;;;;;;5071534;28;20113;-66
2023/08/11 08:49:51;;;;;;;2.92;2.30;;;24.40;53.90;;;;;;5073018;28;20033;-66
2023/08/11 08:52:18;;;;;;;4.07;2.20;;;24.40;54.00;;;;;;5070570;28;20454;-67
2023/08/11 08:54:45;;;;;;;2.78;2.22;;;24.30;53.90;;;;;;5052470;28;20084;-68
2023/08/11 08:57:12;;;;;;;3.05;2.10;;;24.40;54.00;;;;;;5053349;28;20040;-66
2023/08/11 08:59:38;;;;;;;3.78;2.17;;;24.40;54.00;;;;;;5072511;28;20036;-65
2023/08/11 09:02:06;;;;;;;3.75;2.03;;;24.40;54.10;;;;;;5070113;28;20050;-64
2023/08/11 09:04:33;;;;;;;3.65;2.22;;;24.40;54.10;;;;;;5069478;28;20077;-67
2023/08/11 09:07:03;;;;;;;3.20;1.98;;;24.40;54.20;;;;;;5060166;28;20017;-67
2023/08/11 09:09:30;;;;;;;2.78;2.15;;;24.40;54.30;;;;;;5054169;28;20113;-65
2023/08/11 09:11:57;;;;;;;3.00;2.03;;;24.40;54.30;;;;;;5057190;28;20344;-68
2023/08/11 09:14:23;;;;;;;3.08;2.10;;;24.40;54.40;;;;;;5052247;28;20102;-65
2023/08/11 09:16:52;;;;;;;3.38;2.25;;;24.40;54.50;;;;;;5041950;28;20430;-66
2023/08/11 09:19:19;;;;;;;4.22;1.90;;;24.40;54.50;;;;;;5069801;28;20416;-66
2023/08/11 09:21:47;;;;;;;3.22;2.22;;;24.40;54.60;;;;;;5059102;28;20296;-67
2023/08/11 09:24:14;;;;;;;2.58;2.05;;;24.40;54.60;;;;;;5077074;28;20028;-65
2023/08/11 09:26:49;;;;;;;2.47;1.95;;;24.50;54.70;;;;;;5071707;28;20440;-65
2023/08/11 09:29:22;;;;;;;2.60;1.85;;;24.50;54.70;;;;;;5063582;28;20033;-69
2023/08/11 09:31:53;;;;;;;3.67;2.30;;;24.50;54.70;;;;;;5048627;28;20037;-65
2023/08/11 09:34:20;;;;;;;3.67;2.20;;;24.50;54.70;;;;;;5059918;28;20078;-67
2023/08/11 09:36:48;;;;;;;2.80;1.90;;;24.50;54.60;;;;;;5042212;28;20025;-65
2023/08/11 09:39:15;;;;;;;4.93;2.30;;;24.50;54.60;;;;;;5041287;28;20026;-65
2023/08/11 09:41:47;;;;;;;4.47;1.85;;;24.50;54.60;;;;;;5051887;28;20028;-64
2023/08/11 09:44:18;;;;;;;2.90;2.00;;;24.50;54.60;;;;;;5052165;28;20293;-66
2023/08/11 09:46:46;;;;;;;2.40;2.10;;;24.50;54.60;;;;;;5062584;28;20052;-68
2023/08/11 09:49:12;;;;;;;2.85;2.00;;;24.50;54.50;;;;;;5065701;28;20033;-67
2023/08/11 09:51:39;;;;;;;2.42;1.60;;;24.50;54.50;;;;;;5077277;28;20036;-66
2023/08/11 09:54:08;;;;;;;3.20;1.60;;;24.60;54.60;;;;;;5062076;28;20161;-64
2023/08/11 09:56:36;;;;;;;5.20;2.00;;;24.50;54.50;;;;;;5068697;28;20024;-64
2023/08/11 09:59:10;;;;;;;2.35;1.92;;;24.60;54.50;;;;;;5060522;28;20047;-66
2023/08/11 10:01:36;;;;;;;;;;;24.60;54.50;;;;;;5058182;28;20029;-66
2023/08/11 10:04:10;;;;;;;2.45;1.58;;;24.60;54.40;;;;;;5061889;28;20280;-66
2023/08/11 10:06:46;;;;;;;3.75;2.20;;;24.60;54.30;;;;;;5062858;28;20116;-64
2023/08/11 10:09:14;;;;;;;3.30;1.98;;;24.60;54.30;;;;;;5045318;28;20024;-65
2023/08/11 10:11:43;;;;;;;2.95;1.77;;;24.60;54.20;;;;;;5061171;28;20110;-65
2023/08/11 10:14:13;;;;;;;2.53;1.80;;;24.60;54.20;;;;;;5065712;28;20045;-65
2023/08/11 10:16:40;;;;;;;2.63;1.92;;;24.60;54.10;;;;;;5040218;28;20041;-65
2023/08/11 10:19:07;;;;;;;2.13;1.75;;;24.60;54.00;;;;;;5060749;28;20044;-67
2023/08/11 10:21:34;;;;;;;2.30;1.67;;;24.70;54.10;;;;;;5058878;28;20025;-69
2023/08/11 10:24:01;;;;;;;1.98;1.50;;;24.70;54.00;;;;;;5064957;28;20036;-70
2023/08/11 10:26:31;;;;;;;2.75;1.80;;;24.70;54.10;;;;;;5062044;28;20429;-72
2023/08/11 10:29:00;;;;;;;2.83;1.30;;;24.70;54.10;;;;;;5060324;28;20064;-70
2023/08/11 10:31:31;;;;;;;1.92;1.48;;;24.80;54.00;;;;;;5068214;28;20032;-70
2023/08/11 10:33:58;;;;;;;1.65;1.30;;;24.90;53.90;;;;;;5065345;28;20052;-72
2023/08/11 10:36:26;;;;;;;2.30;1.70;;;24.90;53.70;;;;;;5061047;28;20380;-72
2023/08/11 10:39:06;;;;;;;1.95;1.63;;;25.00;53.50;;;;;;5059150;28;20028;-72
2023/08/11 10:41:33;;;;;;;2.50;1.52;;;25.20;53.30;;;;;;5064912;28;20107;-72
2023/08/11 10:44:00;;;;;;;2.67;1.67;;;25.30;53.00;;;;;;5068149;28;20042;-67
2023/08/11 10:46:29;;;;;;;3.05;1.75;;;25.40;52.70;;;;;;5046151;28;20044;-68
2023/08/11 10:48:58;;;;;;;1.98;1.58;;;25.50;52.50;;;;;;5049532;28;20492;-69
2023/08/11 10:51:28;;;;;;;2.97;1.88;;;25.60;52.30;;;;;;5063836;28;20021;-67
2023/08/11 10:53:56;;;;;;;2.40;1.83;;;25.70;52.20;;;;;;5066604;28;20085;-68
2023/08/11 10:56:34;;;;;;;1.95;1.67;;;25.80;51.90;;;;;;5060004;28;20044;-65
2023/08/11 10:59:14;;;;;;;1.98;1.45;;;25.90;51.70;;;;;;5058917;28;20043;-68
2023/08/11 11:01:48;;;;;;;2.95;1.88;;;26.00;51.50;;;;;;5065087;28;20478;-68
2023/08/11 11:04:16;;;;;;;3.33;1.77;;;26.00;51.40;;;;;;5059288;28;20327;-67
2023/08/11 11:06:44;;;;;;;1.95;1.50;;;26.00;51.20;;;;;;5062790;28;20024;-64
2023/08/11 11:09:11;;;;;;;2.65;1.70;;;26.00;51.00;;;;;;5061696;28;20068;-63
2023/08/11 11:11:37;;;;;;;2.60;1.83;;;26.10;51.10;;;;;;5071609;28;20294;-61
2023/08/11 11:14:08;;;;;;;2.78;1.80;;;26.00;51.10;;;;;;5066476;28;20037;-62
2023/08/11 11:16:35;;;;;;;1.55;1.38;;;26.00;51.10;;;;;;5065722;28;20036;-63
2023/08/11 11:19:03;;;;;;;2.83;1.60;;;26.00;51.10;;;;;;5067081;28;20473;-63
2023/08/11 11:21:29;;;;;;;2.42;1.60;;;26.00;51.20;;;;;;5068411;28;20112;-63
2023/08/11 11:23:55;;;;;;;1.92;1.60;;;26.00;51.20;;;;;;5066511;28;20068;-63
2023/08/11 11:26:26;;;;;;;5.68;1.40;;;26.00;51.20;;;;;;5076041;28;20036;-62
2023/08/11 11:28:53;;;;;;;2.97;1.50;;;26.00;51.30;;;;;;5061950;28;20032;-61
2023/08/11 11:31:21;;;;;;;3.90;1.60;;;26.00;51.40;;;;;;5067524;28;20033;-65
2023/08/11 11:33:48;;;;;;;2.20;1.60;;;26.00;51.40;;;;;;5064541;28;20089;-62
2023/08/11 11:36:16;;;;;;;2.25;1.70;;;25.90;51.30;;;;;;5064891;28;20036;-62
2023/08/11 11:38:43;;;;;;;2.65;1.42;;;25.90;51.40;;;;;;5065640;28;20167;-62
2023/08/11 11:41:17;;;;;;;2.90;1.52;;;25.90;51.40;;;;;;5051938;28;20107;-62
2023/08/11 11:43:43;;;;;;;;;;;26.00;51.50;;;;;;5043535;28;20024;-61
2023/08/11 11:46:16;;;;;;;2.10;1.50;;;25.90;51.40;;;;;;5060663;28;19929;-63
2023/08/11 11:48:52;;;;;;;2.53;1.35;;;25.90;51.50;;;;;;5061413;28;20078;-62
2023/08/11 11:51:20;;;;;;;2.30;1.42;;;25.80;51.50;;;;;;5071816;28;20311;-61
2023/08/11 11:53:51;;;;;;;3.20;1.50;;;25.80;51.50;;;;;;5072067;28;20066;-62
2023/08/11 11:56:18;;;;;;;1.77;1.58;;;25.80;51.60;;;;;;5065666;28;20952;-63
2023/08/11 11:58:46;;;;;;;1.58;1.48;;;25.80;51.70;;;;;;5061220;28;20054;-63
2023/08/11 12:01:15;;;;;;;1.60;1.20;;;25.80;51.70;;;;;;5062246;28;20057;-62
2023/08/11 12:03:44;;;;;;;1.88;1.45;;;25.70;51.60;;;;;;5067347;28;20373;-64
2023/08/11 12:06:12;;;;;;;1.58;1.20;;;25.70;51.70;;;;;;5065687;28;20024;-62
2023/08/11 12:08:41;;;;;;;2.03;1.40;;;25.70;51.70;;;;;;5064070;28;20355;-63
2023/08/11 12:11:11;;;;;;;3.67;1.50;;;25.70;51.70;;;;;;5046047;28;20447;-63
2023/08/11 12:13:41;;;;;;;1.80;1.35;;;25.70;51.70;;;;;;5068989;28;20094;-62
2023/08/11 12:16:09;;;;;;;2.05;1.27;;;25.70;51.80;;;;;;5065156;28;20121;-61
2023/08/11 12:18:37;;;;;;;2.20;1.38;;;25.70;51.80;;;;;;5063363;28;20343;-62
2023/08/11 12:21:03;;;;;;;2.60;1.60;;;25.70;51.80;;;;;;5062013;28;20033;-62
2023/08/11 12:23:30;;;;;;;2.35;1.40;;;25.60;51.80;;;;;;5071670;28;20351;-62
2023/08/11 12:25:56;;;;;;;2.67;1.33;;;25.60;51.80;;;;;;5065682;28;20032;-64
2023/08/11 12:28:22;;;;;;;2.00;1.38;;;25.60;51.90;;;;;;5062920;28;20021;-63
2023/08/11 12:30:48;;;;;;;1.77;1.20;;;25.60;51.90;;;;;;5064250;28;21734;-61
2023/08/11 12:33:15;;;;;;;3.28;1.48;;;25.60;52.00;;;;;;5072372;28;20036;-63
2023/08/11 12:35:45;;;;;;;3.55;1.35;;;25.60;52.00;;;;;;5063212;28;20029;-62
2023/08/11 12:38:12;;;;;;;1.92;1.38;;;25.60;52.00;;;;;;5068381;28;20171;-63
2023/08/11 12:40:40;;;;;;;1.60;1.33;;;25.60;52.10;;;;;;5064567;28;20120;-63
2023/08/11 12:43:06;;;;;;;6.95;1.70;;;25.60;52.30;;;;;;5067629;28;20107;-63
2023/08/11 12:45:32;;;;;;;2.03;1.40;;;25.60;52.20;;;;;;5074300;28;20141;-63
2023/08/11 12:47:58;;;;;;;3.17;1.48;;;25.60;52.20;;;;;;5042208;28;20032;-64
2023/08/11 12:50:28;;;;;;;1.67;1.40;;;25.60;52.20;;;;;;5062297;28;20021;-63